Time;durP1;ratioP1;P1;durP2;ratioP2;P2;SDS_P1;SDS_P2;PMS_P1;PMS_P2;Temp;Humidity;BMP_temperature;BMP_pressure;BME280_temperature;BME280_humidity;BME280_pressure;Samples;Min_cycle;Max_cycle;Signal;HPM_P1;HPM_P2
2021/03/16 00:01:22;;;;;;;8.75;6.47;;;4.30;77.00;;;;;;5044208;28;20045;-57
2021/03/16 00:03:47;;;;;;;9.25;6.13;;;4.30;77.10;;;;;;5044299;28;20035;-58
2021/03/16 00:06:15;;;;;;;9.52;6.80;;;4.40;76.90;;;;;;5046165;28;20032;-58
2021/03/16 00:08:41;;;;;;;9.20;6.40;;;4.30;76.70;;;;;;5045193;28;20064;-57
2021/03/16 00:11:06;;;;;;;10.45;6.85;;;4.40;77.20;;;;;;5028842;28;20038;-58
2021/03/16 00:13:32;;;;;;;10.52;7.05;;;4.30;77.40;;;;;;5034708;28;20080;-58
2021/03/16 00:15:57;;;;;;;12.65;6.68;;;4.30;77.60;;;;;;5044497;28;20039;-59
2021/03/16 00:18:23;;;;;;;13.68;7.38;;;4.30;77.50;;;;;;5043822;28;20032;-59
2021/03/16 00:20:49;;;;;;;11.57;7.45;;;4.30;77.40;;;;;;5045847;28;20067;-58
2021/03/16 00:23:14;;;;;;;11.02;7.50;;;4.40;77.50;;;;;;5044504;28;20045;-59
2021/03/16 00:25:40;;;;;;;10.38;7.57;;;4.30;77.30;;;;;;5043814;28;20101;-58
2021/03/16 00:28:05;;;;;;;10.88;7.63;;;4.30;77.80;;;;;;5044017;28;20038;-59
2021/03/16 00:30:31;;;;;;;11.85;7.78;;;4.40;77.40;;;;;;5044022;28;20049;-58
2021/03/16 00:32:57;;;;;;;13.63;6.88;;;4.30;77.60;;;;;;5045410;28;20036;-58
2021/03/16 00:35:23;;;;;;;11.63;7.82;;;4.40;78.00;;;;;;5044185;28;20042;-58
2021/03/16 00:37:48;;;;;;;9.98;7.53;;;4.40;77.70;;;;;;5043301;28;20108;-57
2021/03/16 00:40:14;;;;;;;11.13;8.15;;;4.40;77.60;;;;;;5043441;28;20053;-58
2021/03/16 00:42:40;;;;;;;13.15;7.60;;;4.40;77.80;;;;;;5043734;28;20037;-60
2021/03/16 00:45:06;;;;;;;13.65;7.43;;;4.40;77.90;;;;;;5045714;28;20041;-58
2021/03/16 00:47:31;;;;;;;10.77;7.90;;;4.40;77.90;;;;;;5043665;28;20355;-59
2021/03/16 00:49:57;;;;;;;11.73;7.15;;;4.40;77.80;;;;;;5043778;28;20037;-59
2021/03/16 00:52:23;;;;;;;11.50;7.25;;;4.40;77.60;;;;;;5043823;28;20041;-58
2021/03/16 00:54:48;;;;;;;11.15;7.45;;;4.40;77.90;;;;;;5043705;28;20036;-58
2021/03/16 00:57:14;;;;;;;11.05;7.60;;;4.30;78.10;;;;;;5044933;28;20033;-59
2021/03/16 00:59:39;;;;;;;12.63;7.40;;;4.40;78.30;;;;;;5043181;28;20044;-58
2021/03/16 01:02:05;;;;;;;11.57;7.30;;;4.40;77.80;;;;;;5043152;28;20269;-59
2021/03/16 01:04:31;;;;;;;10.80;7.53;;;4.30;77.70;;;;;;5043365;28;20033;-58
2021/03/16 01:06:56;;;;;;;11.18;7.28;;;4.40;78.20;;;;;;5043498;28;20029;-59
2021/03/16 01:09:22;;;;;;;11.90;7.53;;;4.40;78.00;;;;;;5043032;28;20095;-58
2021/03/16 01:11:47;;;;;;;12.07;7.15;;;4.30;78.20;;;;;;5044990;28;20030;-58
2021/03/16 01:14:13;;;;;;;11.75;6.65;;;4.40;78.30;;;;;;5043436;28;20048;-59
2021/03/16 01:16:38;;;;;;;9.65;6.82;;;4.40;77.90;;;;;;5043301;28;20033;-58
2021/03/16 01:19:04;;;;;;;11.38;6.60;;;4.40;78.10;;;;;;5042794;28;20047;-59
2021/03/16 01:21:29;;;;;;;13.88;6.90;;;4.40;77.80;;;;;;5043094;28;20056;-58
2021/03/16 01:23:55;;;;;;;12.93;7.40;;;4.40;77.70;;;;;;5044507;28;20217;-59
2021/03/16 01:26:20;;;;;;;15.40;7.32;;;4.40;77.90;;;;;;5043261;28;20041;-59
2021/03/16 01:28:46;;;;;;;12.23;6.70;;;4.30;78.00;;;;;;5042882;28;20092;-59
2021/03/16 01:31:11;;;;;;;10.75;6.78;;;4.40;78.20;;;;;;5042743;28;20140;-58
2021/03/16 01:33:37;;;;;;;9.90;6.65;;;4.30;78.10;;;;;;5042981;28;20096;-59
2021/03/16 01:36:02;;;;;;;10.48;6.82;;;4.40;78.00;;;;;;5044783;28;20049;-58
2021/03/16 01:38:28;;;;;;;10.18;6.72;;;4.40;77.90;;;;;;5043141;28;20044;-58
2021/03/16 01:40:53;;;;;;;10.57;6.57;;;4.40;77.90;;;;;;5043136;28;20056;-59
2021/03/16 01:43:20;;;;;;;13.77;6.97;;;4.30;77.40;;;;;;5042606;28;20104;-58
2021/03/16 01:45:46;;;;;;;10.00;6.65;;;4.30;77.80;;;;;;5042792;28;20037;-58
2021/03/16 01:48:12;;;;;;;12.98;6.97;;;4.40;77.90;;;;;;5044714;28;20057;-58
2021/03/16 01:50:39;;;;;;;11.85;7.18;;;4.40;77.90;;;;;;5042351;28;20040;-58
2021/03/16 01:53:04;;;;;;;12.18;6.57;;;4.40;77.90;;;;;;5041511;28;20030;-59
2021/03/16 01:55:30;;;;;;;11.05;6.95;;;4.40;77.70;;;;;;5014674;28;20186;-58
2021/03/16 01:57:56;;;;;;;12.15;7.18;;;4.40;77.60;;;;;;5027003;28;20034;-58
2021/03/16 02:00:22;;;;;;;11.88;7.20;;;4.40;77.20;;;;;;5042244;28;20972;-58
2021/03/16 02:02:48;;;;;;;10.55;7.03;;;4.40;77.60;;;;;;5044008;28;20039;-58
2021/03/16 02:05:14;;;;;;;10.88;7.28;;;4.40;77.70;;;;;;5026550;28;20038;-58
2021/03/16 02:07:52;;;;;;;11.73;7.45;;;4.40;77.60;;;;;;5034014;28;20040;-58
2021/03/16 02:10:38;;;;;;;9.65;7.00;;;4.40;77.70;;;;;;5042450;28;20053;-58
2021/03/16 02:13:16;;;;;;;10.35;6.82;;;4.50;77.50;;;;;;5041362;28;20413;-58
2021/03/16 02:15:41;;;;;;;12.35;7.10;;;4.40;77.60;;;;;;5025456;28;20037;-58
2021/03/16 02:18:13;;;;;;;13.68;6.80;;;4.50;77.60;;;;;;5043276;28;20057;-59
2021/03/16 02:20:50;;;;;;;;;;;4.40;77.30;;;;;;5041837;28;20344;-59
2021/03/16 02:23:37;;;;;;;11.13;7.15;;;4.40;77.60;;;;;;5025997;28;19940;-58
2021/03/16 02:26:26;;;;;;;12.85;7.50;;;4.40;77.40;;;;;;5036626;28;20044;-59
2021/03/16 02:29:02;;;;;;;11.98;7.10;;;4.40;77.20;;;;;;5042235;28;20056;-59
2021/03/16 02:31:28;;;;;;;13.55;7.45;;;4.50;77.10;;;;;;5041246;28;20052;-59
2021/03/16 02:33:54;;;;;;;15.52;8.02;;;4.40;77.10;;;;;;5019300;28;20096;-58
2021/03/16 02:36:19;;;;;;;11.10;7.28;;;4.40;77.10;;;;;;5022059;28;20088;-59
2021/03/16 02:38:46;;;;;;;13.98;7.38;;;4.40;77.30;;;;;;5043792;28;20044;-58
2021/03/16 02:41:13;;;;;;;11.60;7.30;;;4.40;77.10;;;;;;5025033;28;20040;-59
2021/03/16 02:43:39;;;;;;;13.25;7.30;;;4.50;77.30;;;;;;5041038;28;20038;-58
2021/03/16 02:46:05;;;;;;;12.98;7.65;;;4.50;77.10;;;;;;5042448;28;20246;-58
2021/03/16 02:48:31;;;;;;;10.95;7.20;;;4.50;76.80;;;;;;5040878;28;20037;-58
2021/03/16 02:50:56;;;;;;;14.32;7.22;;;4.50;77.10;;;;;;5043835;28;20040;-58
2021/03/16 02:53:22;;;;;;;14.23;8.18;;;4.60;77.00;;;;;;5042363;28;20045;-58
2021/03/16 02:55:47;;;;;;;11.02;7.43;;;4.50;76.50;;;;;;5012186;28;20060;-58
2021/03/16 02:58:13;;;;;;;16.13;7.60;;;4.50;77.00;;;;;;5030023;28;20041;-59
2021/03/16 03:00:39;;;;;;;12.48;7.68;;;4.50;77.20;;;;;;5040858;28;20041;-58
2021/03/16 03:03:05;;;;;;;15.15;7.70;;;4.60;76.60;;;;;;5045670;28;20037;-59
2021/03/16 03:05:30;;;;;;;12.25;7.30;;;4.50;76.40;;;;;;5044879;28;20038;-58
2021/03/16 03:07:56;;;;;;;14.52;7.47;;;4.50;76.70;;;;;;5028307;28;20045;-59
2021/03/16 03:10:23;;;;;;;14.98;7.97;;;4.50;76.90;;;;;;5044373;28;20034;-58
2021/03/16 03:12:51;;;;;;;15.48;7.68;;;4.50;76.60;;;;;;5045440;28;20033;-59
2021/03/16 03:15:16;;;;;;;13.20;7.50;;;4.50;76.80;;;;;;5045240;28;20347;-59
2021/03/16 03:17:42;;;;;;;12.95;7.30;;;4.50;77.00;;;;;;5047342;28;20031;-58
2021/03/16 03:20:08;;;;;;;11.60;7.18;;;4.40;76.80;;;;;;5045365;28;20037;-58
2021/03/16 03:22:37;;;;;;;14.43;7.43;;;4.50;77.10;;;;;;5045501;28;20251;-58
2021/03/16 03:25:06;;;;;;;15.32;7.60;;;4.50;77.20;;;;;;5044360;28;20044;-58
2021/03/16 03:27:34;;;;;;;12.98;8.43;;;4.50;76.90;;;;;;5043933;28;20033;-58
2021/03/16 03:30:00;;;;;;;13.52;7.78;;;4.50;77.20;;;;;;5029594;28;20033;-59
2021/03/16 03:32:27;;;;;;;14.18;7.60;;;4.50;76.90;;;;;;5010344;28;20041;-59
2021/03/16 03:34:53;;;;;;;12.60;8.20;;;4.50;76.70;;;;;;5038505;28;20037;-58
2021/03/16 03:37:21;;;;;;;12.85;7.90;;;4.50;76.70;;;;;;5019048;28;20380;-59
2021/03/16 03:39:46;;;;;;;12.48;7.68;;;4.50;76.80;;;;;;5023377;28;20049;-59
2021/03/16 03:42:12;;;;;;;14.50;7.63;;;4.40;76.70;;;;;;5026843;28;20314;-59
2021/03/16 03:44:37;;;;;;;14.13;7.13;;;4.50;76.60;;;;;;5043200;28;20052;-59
2021/03/16 03:47:03;;;;;;;13.90;7.55;;;4.50;76.60;;;;;;5027114;28;20206;-58
2021/03/16 03:49:29;;;;;;;13.32;7.53;;;4.40;76.50;;;;;;5043569;28;20037;-58
2021/03/16 03:51:56;;;;;;;14.88;7.70;;;4.50;76.40;;;;;;5043706;28;20038;-58
2021/03/16 03:54:22;;;;;;;12.40;7.55;;;4.50;76.40;;;;;;5044556;28;20037;-58
2021/03/16 03:56:47;;;;;;;15.35;7.95;;;4.60;76.40;;;;;;5045086;28;20082;-58
2021/03/16 03:59:13;;;;;;;14.45;7.57;;;4.40;76.20;;;;;;5043401;28;20100;-58
2021/03/16 04:01:38;;;;;;;16.58;7.82;;;4.40;76.70;;;;;;5043551;28;20045;-59
2021/03/16 04:04:04;;;;;;;15.88;7.55;;;4.50;76.80;;;;;;5044654;28;20071;-59
2021/03/16 04:06:29;;;;;;;12.50;6.75;;;4.50;76.50;;;;;;5043292;28;20220;-59
2021/03/16 04:08:55;;;;;;;14.00;7.28;;;4.50;76.20;;;;;;5046131;28;20032;-58
2021/03/16 04:11:21;;;;;;;15.27;7.28;;;4.60;76.00;;;;;;5043712;28;20101;-58
2021/03/16 04:13:47;;;;;;;13.98;7.25;;;4.50;75.80;;;;;;5043217;28;20041;-59
2021/03/16 04:16:13;;;;;;;15.25;6.93;;;4.50;76.40;;;;;;5043219;28;20045;-59
2021/03/16 04:18:39;;;;;;;13.77;6.53;;;4.40;76.60;;;;;;5043118;28;20041;-59
2021/03/16 04:21:05;;;;;;;10.93;6.85;;;4.40;76.70;;;;;;5028542;28;20217;-58
2021/03/16 04:23:32;;;;;;;12.35;6.25;;;4.50;76.40;;;;;;5044394;28;20041;-59
2021/03/16 04:25:58;;;;;;;12.98;6.45;;;4.50;76.40;;;;;;5044329;28;20228;-59
2021/03/16 04:28:23;;;;;;;10.20;6.25;;;4.50;76.10;;;;;;5044133;28;20097;-58
2021/03/16 04:30:49;;;;;;;10.35;6.70;;;4.50;76.40;;;;;;5043910;28;20037;-58
2021/03/16 04:33:14;;;;;;;10.40;6.25;;;4.50;76.10;;;;;;5045680;28;20049;-59
2021/03/16 04:35:40;;;;;;;12.63;6.65;;;4.60;76.00;;;;;;5044679;28;20053;-58
2021/03/16 04:38:05;;;;;;;14.45;6.65;;;4.50;75.30;;;;;;5044300;28;20202;-60
2021/03/16 04:40:31;;;;;;;11.52;6.53;;;4.50;75.70;;;;;;5043925;28;20352;-58
2021/03/16 04:42:56;;;;;;;14.20;7.25;;;4.40;75.50;;;;;;5043755;28;20128;-59
2021/03/16 04:45:22;;;;;;;13.73;6.93;;;4.40;76.00;;;;;;5043536;28;20060;-58
2021/03/16 04:47:47;;;;;;;15.48;7.32;;;4.50;75.90;;;;;;5045462;28;20322;-58
2021/03/16 04:50:13;;;;;;;16.70;7.63;;;4.50;75.60;;;;;;5043503;28;20056;-58
2021/03/16 04:52:38;;;;;;;13.57;7.03;;;4.40;75.40;;;;;;5043758;28;20048;-59
2021/03/16 04:55:04;;;;;;;12.75;7.45;;;4.40;75.60;;;;;;5043492;28;20025;-59
2021/03/16 04:57:30;;;;;;;12.55;6.82;;;4.40;75.70;;;;;;5043560;28;20313;-59
2021/03/16 04:59:56;;;;;;;14.88;6.50;;;4.30;76.10;;;;;;5044258;28;20033;-58
2021/03/16 05:02:21;;;;;;;12.73;6.82;;;4.40;76.20;;;;;;5043378;28;20207;-59
2021/03/16 05:04:47;;;;;;;15.00;7.18;;;4.40;76.10;;;;;;5043586;28;20030;-58
2021/03/16 05:07:12;;;;;;;17.95;6.95;;;4.40;75.80;;;;;;5043292;28;20030;-58
2021/03/16 05:09:38;;;;;;;15.77;7.15;;;4.40;76.20;;;;;;5043194;28;20034;-58
2021/03/16 05:12:04;;;;;;;14.20;7.03;;;4.40;75.60;;;;;;5044694;28;20021;-59
2021/03/16 05:14:29;;;;;;;13.82;6.70;;;4.40;76.30;;;;;;5043453;28;20037;-58
2021/03/16 05:16:55;;;;;;;14.18;6.75;;;4.40;76.20;;;;;;5043343;28;20217;-58
2021/03/16 05:19:20;;;;;;;13.60;6.60;;;4.40;76.40;;;;;;5042810;28;20037;-59
2021/03/16 05:21:46;;;;;;;13.15;6.70;;;4.40;76.10;;;;;;5043125;28;20064;-59
2021/03/16 05:24:11;;;;;;;16.17;6.80;;;4.30;76.30;;;;;;5044587;28;20240;-58
2021/03/16 05:26:37;;;;;;;14.70;6.75;;;4.30;76.50;;;;;;5042862;28;20064;-59
2021/03/16 05:29:03;;;;;;;14.80;6.68;;;4.40;76.60;;;;;;5042816;28;20037;-58
2021/03/16 05:31:29;;;;;;;13.43;6.75;;;4.40;76.30;;;;;;5042759;28;20041;-59
2021/03/16 05:33:54;;;;;;;16.42;6.35;;;4.40;76.20;;;;;;5042876;28;20325;-58
2021/03/16 05:36:20;;;;;;;12.43;6.47;;;4.40;76.10;;;;;;5042907;28;20021;-58
2021/03/16 05:38:45;;;;;;;12.30;5.50;;;4.40;76.40;;;;;;5044071;28;20053;-58
2021/03/16 05:41:11;;;;;;;14.77;6.60;;;4.40;76.40;;;;;;5043018;28;20044;-59
2021/03/16 05:43:36;;;;;;;14.70;6.45;;;4.40;76.50;;;;;;5041281;28;20037;-58
2021/03/16 05:46:02;;;;;;;11.70;6.15;;;4.40;76.30;;;;;;5041505;28;20087;-58
2021/03/16 05:48:28;;;;;;;12.50;6.38;;;4.40;76.40;;;;;;5042690;28;20320;-59
2021/03/16 05:50:54;;;;;;;14.20;6.65;;;4.40;76.10;;;;;;5044033;28;20025;-59
2021/03/16 05:53:19;;;;;;;20.10;6.80;;;4.40;76.30;;;;;;5042382;28;20040;-58
2021/03/16 05:55:45;;;;;;;16.33;6.60;;;4.40;76.20;;;;;;5041315;28;20030;-58
2021/03/16 05:58:10;;;;;;;12.35;6.60;;;4.40;76.20;;;;;;5042475;28;20047;-58
2021/03/16 06:00:36;;;;;;;14.70;5.85;;;4.50;76.10;;;;;;5041142;28;20091;-58
2021/03/16 06:03:01;;;;;;;16.27;6.20;;;4.40;75.90;;;;;;5043888;28;20252;-58
2021/03/16 06:05:27;;;;;;;14.70;6.10;;;4.40;76.00;;;;;;5042811;28;20038;-57
2021/03/16 06:07:53;;;;;;;15.25;6.25;;;4.50;75.50;;;;;;5042037;28;20038;-58
2021/03/16 06:10:20;;;;;;;13.88;5.95;;;4.40;75.50;;;;;;5042296;28;20087;-58
2021/03/16 06:12:45;;;;;;;14.15;6.30;;;4.50;75.90;;;;;;5042251;28;20037;-58
2021/03/16 06:15:18;;;;;;;11.13;5.70;;;4.50;75.30;;;;;;5042958;28;20198;-58
2021/03/16 06:17:54;;;;;;;11.48;5.57;;;4.50;75.10;;;;;;5042519;28;20037;-59
2021/03/16 06:20:27;;;;;;;13.35;6.00;;;4.50;75.20;;;;;;5042524;28;20329;-59
2021/03/16 06:23:08;;;;;;;14.98;5.88;;;4.50;75.00;;;;;;5042192;28;20037;-59
2021/03/16 06:25:41;;;;;;;14.55;6.60;;;4.40;75.10;;;;;;5042224;28;20042;-58
2021/03/16 06:28:08;;;;;;;13.13;5.45;;;4.50;75.40;;;;;;5042317;28;20325;-59
2021/03/16 06:30:34;;;;;;;12.25;5.65;;;4.40;75.10;;;;;;5042308;28;20022;-57
2021/03/16 06:32:59;;;;;;;11.77;6.05;;;4.50;75.30;;;;;;5043800;28;20032;-57
2021/03/16 06:35:25;;;;;;;11.90;6.45;;;4.40;75.50;;;;;;5042410;28;20041;-58
2021/03/16 06:38:10;;;;;;;12.07;6.07;;;4.40;75.80;;;;;;5045460;28;20029;-58
2021/03/16 06:40:35;;;;;;;13.80;5.97;;;4.40;75.40;;;;;;5046220;28;20049;-57
2021/03/16 06:43:08;;;;;;;11.70;5.65;;;4.50;75.70;;;;;;5045495;28;20096;-58
2021/03/16 06:45:35;;;;;;;10.77;5.90;;;4.50;75.70;;;;;;5046040;28;20037;-58
2021/03/16 06:48:12;;;;;;;11.65;5.78;;;4.40;75.40;;;;;;5047828;28;20244;-59
2021/03/16 06:50:38;;;;;;;14.68;5.68;;;4.50;76.00;;;;;;5046289;28;20037;-59
2021/03/16 06:53:03;;;;;;;21.42;5.93;;;4.50;75.80;;;;;;5045114;28;20140;-58
2021/03/16 06:55:29;;;;;;;11.93;5.88;;;4.40;75.30;;;;;;5044989;28;20049;-58
2021/03/16 06:58:04;;;;;;;9.52;4.82;;;4.40;75.40;;;;;;5045584;28;20071;-58
2021/03/16 07:00:29;;;;;;;9.07;4.82;;;4.40;76.50;;;;;;5045237;28;20081;-59
2021/03/16 07:02:55;;;;;;;12.98;5.32;;;4.40;76.70;;;;;;5047033;28;20036;-60
2021/03/16 07:05:27;;;;;;;17.13;5.93;;;4.30;77.20;;;;;;5045859;28;20029;-58
2021/03/16 07:07:53;;;;;;;8.25;5.10;;;4.40;77.50;;;;;;5044619;28;20053;-58
2021/03/16 07:10:18;;;;;;;9.38;4.50;;;4.20;77.60;;;;;;5045340;28;20034;-58
2021/03/16 07:12:44;;;;;;;12.52;5.07;;;4.30;77.60;;;;;;5044325;28;20217;-59
2021/03/16 07:15:11;;;;;;;11.50;5.47;;;4.30;77.20;;;;;;5013233;28;20021;-59
2021/03/16 07:17:36;;;;;;;13.70;5.40;;;4.20;77.50;;;;;;5044337;28;20061;-58
2021/03/16 07:20:08;;;;;;;12.80;5.60;;;4.20;76.60;;;;;;5044420;28;20045;-59
2021/03/16 07:22:37;;;;;;;;;;;4.30;76.80;;;;;;5045510;28;20034;-58
2021/03/16 07:25:09;;;;;;;14.95;5.20;;;4.30;76.60;;;;;;5045012;28;19975;-58
2021/03/16 07:27:34;;;;;;;13.38;5.13;;;4.40;77.00;;;;;;5044961;28;20053;-58
2021/03/16 07:30:00;;;;;;;11.20;5.38;;;4.40;76.70;;;;;;5046959;28;20041;-58
2021/03/16 07:32:26;;;;;;;9.80;4.68;;;4.50;77.10;;;;;;5045423;28;20060;-58
2021/03/16 07:34:52;;;;;;;7.55;4.60;;;4.40;76.80;;;;;;5045531;28;20041;-59
2021/03/16 07:37:17;;;;;;;10.55;4.70;;;4.50;76.50;;;;;;5035311;28;20056;-58
2021/03/16 07:39:43;;;;;;;10.50;4.65;;;4.50;76.60;;;;;;5027815;28;20347;-58
2021/03/16 07:42:10;;;;;;;9.95;4.15;;;4.50;76.60;;;;;;5045542;28;20068;-58
2021/03/16 07:44:41;;;;;;;14.55;5.93;;;4.50;76.70;;;;;;5044002;28;20041;-59
2021/03/16 07:47:07;;;;;;;10.05;4.47;;;4.60;76.80;;;;;;5044897;28;20068;-58
2021/03/16 07:49:34;;;;;;;17.10;4.70;;;4.60;76.30;;;;;;5016678;28;20345;-59
2021/03/16 07:52:00;;;;;;;9.60;4.20;;;4.60;76.50;;;;;;5030901;28;20096;-59
2021/03/16 07:54:36;;;;;;;14.70;5.43;;;4.70;76.60;;;;;;5043520;28;20068;-58
2021/03/16 07:57:02;;;;;;;12.25;4.35;;;4.70;76.50;;;;;;5046079;28;20078;-59
2021/03/16 07:59:35;;;;;;;9.73;4.22;;;4.60;75.80;;;;;;5044905;28;20065;-58
2021/03/16 08:02:00;;;;;;;11.43;4.35;;;4.60;76.20;;;;;;5044275;28;20045;-58
2021/03/16 08:04:39;;;;;;;9.80;4.47;;;4.60;76.20;;;;;;5043271;28;20080;-58
2021/03/16 08:07:06;;;;;;;8.13;4.03;;;4.60;76.20;;;;;;5044598;28;20029;-58
2021/03/16 08:09:45;;;;;;;13.63;4.75;;;4.60;76.10;;;;;;5044284;28;20037;-58
2021/03/16 08:12:26;;;;;;;7.80;4.35;;;4.50;75.50;;;;;;5045337;28;20262;-58
2021/03/16 08:14:52;;;;;;;8.73;4.30;;;4.60;76.50;;;;;;5045037;28;20092;-58
2021/03/16 08:17:32;;;;;;;7.15;4.30;;;4.50;76.10;;;;;;5042996;28;20061;-58
2021/03/16 08:19:58;;;;;;;9.38;5.00;;;4.70;76.20;;;;;;5044437;28;20037;-58
2021/03/16 08:22:24;;;;;;;9.05;4.60;;;4.70;76.00;;;;;;5044260;28;20044;-59
2021/03/16 08:24:59;;;;;;;8.98;4.57;;;4.70;76.20;;;;;;5044402;28;20064;-58
2021/03/16 08:27:26;;;;;;;11.43;4.60;;;4.80;76.10;;;;;;5042856;28;20261;-58
2021/03/16 08:29:51;;;;;;;12.35;4.90;;;4.70;75.80;;;;;;5045962;28;20101;-59
2021/03/16 08:32:18;;;;;;;13.27;4.82;;;4.70;75.70;;;;;;5044275;28;20229;-58
2021/03/16 08:34:44;;;;;;;11.50;4.97;;;4.80;75.80;;;;;;5042870;28;20357;-58
2021/03/16 08:37:23;;;;;;;13.68;5.10;;;4.80;75.50;;;;;;5043776;28;20045;-58
2021/03/16 08:39:50;;;;;;;12.05;5.35;;;4.90;75.60;;;;;;5043590;28;20080;-59
2021/03/16 08:42:23;;;;;;;11.68;4.90;;;4.90;74.80;;;;;;5043683;28;20079;-58
2021/03/16 08:44:48;;;;;;;9.80;4.82;;;5.00;75.00;;;;;;5045264;28;20033;-57
2021/03/16 08:47:16;;;;;;;14.50;5.38;;;5.00;75.10;;;;;;5043934;28;20206;-58
2021/03/16 08:49:43;;;;;;;12.85;4.75;;;5.10;74.80;;;;;;5043657;28;20351;-59
2021/03/16 08:52:35;;;;;;;10.95;4.90;;;5.00;74.50;;;;;;5043540;28;20348;-59
2021/03/16 08:55:01;;;;;;;10.30;4.82;;;5.00;74.40;;;;;;5037937;28;20025;-61
2021/03/16 08:57:29;;;;;;;10.00;4.63;;;5.00;74.40;;;;;;5043378;28;20031;-59
2021/03/16 09:00:04;;;;;;;10.98;4.80;;;5.00;73.80;;;;;;5044270;28;20030;-59
2021/03/16 09:02:31;;;;;;;16.92;6.55;;;5.10;74.10;;;;;;5043787;28;20045;-58
2021/03/16 09:04:57;;;;;;;12.80;4.63;;;5.20;74.20;;;;;;5043474;28;20033;-59
2021/03/16 09:07:24;;;;;;;13.13;4.72;;;5.20;74.00;;;;;;5043803;28;20096;-58
2021/03/16 09:10:11;;;;;;;9.63;4.07;;;5.30;73.90;;;;;;5043633;28;20034;-59
2021/03/16 09:12:37;;;;;;;8.43;4.40;;;5.30;73.40;;;;;;5042729;28;20049;-58
2021/03/16 09:15:13;;;;;;;12.70;4.65;;;5.40;73.40;;;;;;5044672;28;20028;-58
2021/03/16 09:17:39;;;;;;;11.05;4.43;;;5.60;73.20;;;;;;5043684;28;20037;-58
2021/03/16 09:20:09;;;;;;;9.95;4.70;;;5.70;72.80;;;;;;5043410;28;20037;-58
2021/03/16 09:22:35;;;;;;;9.48;4.30;;;5.90;73.10;;;;;;5043264;28;20040;-59
2021/03/16 09:25:01;;;;;;;7.63;4.18;;;5.80;71.80;;;;;;5043070;28;20213;-59
2021/03/16 09:27:26;;;;;;;10.43;3.88;;;5.80;71.60;;;;;;5042837;28;20095;-59
2021/03/16 09:29:52;;;;;;;9.75;3.83;;;5.60;70.00;;;;;;5044884;28;20060;-58
2021/03/16 09:32:17;;;;;;;11.73;3.47;;;5.60;71.30;;;;;;5042185;28;20041;-58
2021/03/16 09:34:46;;;;;;;7.30;2.70;;;5.60;71.60;;;;;;5042783;28;20036;-59
2021/03/16 09:37:15;;;;;;;8.57;3.33;;;5.80;70.70;;;;;;5042906;28;20048;-59
2021/03/16 09:40:01;;;;;;;7.93;3.05;;;5.80;70.20;;;;;;5042540;28;20359;-59
2021/03/16 09:42:35;;;;;;;10.60;3.55;;;6.10;69.50;;;;;;5042373;28;20033;-58
2021/03/16 09:45:03;;;;;;;10.63;3.30;;;6.20;69.90;;;;;;5044312;28;20037;-58
2021/03/16 09:47:28;;;;;;;10.13;3.25;;;6.20;68.90;;;;;;5042968;28;20100;-58
2021/03/16 09:50:10;;;;;;;8.45;3.10;;;6.30;68.40;;;;;;5042497;28;20038;-59
2021/03/16 09:52:35;;;;;;;;;;;6.20;69.50;;;;;;5032178;28;20101;-59
2021/03/16 09:55:01;;;;;;;7.68;3.47;;;6.30;69.10;;;;;;5028818;28;19912;-59
2021/03/16 09:57:31;;;;;;;10.75;3.95;;;6.30;70.00;;;;;;5041315;28;20089;-59
2021/03/16 09:59:57;;;;;;;6.97;3.50;;;6.10;68.60;;;;;;5042830;28;20025;-59
2021/03/16 10:02:40;;;;;;;9.48;3.95;;;6.30;70.00;;;;;;5042831;28;20065;-59
2021/03/16 10:05:10;;;;;;;10.68;4.13;;;6.40;69.30;;;;;;5042414;28;20079;-59
2021/03/16 10:07:36;;;;;;;11.48;4.38;;;6.40;68.40;;;;;;5042427;28;20097;-59
2021/03/16 10:10:16;;;;;;;13.38;4.13;;;6.40;68.10;;;;;;5042514;28;20040;-59
2021/03/16 10:12:55;;;;;;;10.60;3.92;;;6.40;69.10;;;;;;5041175;28;20314;-58
2021/03/16 10:15:30;;;;;;;10.45;3.60;;;6.30;68.10;;;;;;5027985;28;20029;-59
2021/03/16 10:18:00;;;;;;;10.15;3.53;;;6.20;67.90;;;;;;5047249;28;20036;-58
2021/03/16 10:20:28;;;;;;;6.90;3.50;;;6.20;67.90;;;;;;5046827;28;20221;-59
2021/03/16 10:22:59;;;;;;;12.57;3.20;;;6.10;68.90;;;;;;5046722;28;20105;-59
2021/03/16 10:25:25;;;;;;;6.20;3.30;;;6.00;69.50;;;;;;5046788;28;20102;-59
2021/03/16 10:28:02;;;;;;;13.15;3.92;;;5.90;69.70;;;;;;5046399;28;20044;-59
2021/03/16 10:30:37;;;;;;;10.35;3.70;;;6.00;69.20;;;;;;5012161;28;20032;-59
2021/03/16 10:33:04;;;;;;;5.65;3.08;;;5.90;68.50;;;;;;5048001;28;20084;-59
2021/03/16 10:35:30;;;;;;;5.07;2.60;;;6.00;68.20;;;;;;5046351;28;20041;-59
2021/03/16 10:37:56;;;;;;;9.20;3.03;;;5.90;68.30;;;;;;5045731;28;20046;-60
2021/03/16 10:40:21;;;;;;;8.60;2.90;;;5.80;67.60;;;;;;5046203;28;20045;-59
2021/03/16 10:42:47;;;;;;;8.60;3.03;;;5.80;67.70;;;;;;5045797;28;20044;-60
2021/03/16 10:45:13;;;;;;;8.90;2.85;;;5.90;67.40;;;;;;5047739;28;20025;-60
2021/03/16 10:47:39;;;;;;;7.70;3.00;;;5.90;66.80;;;;;;5045961;28;20083;-59
2021/03/16 10:50:05;;;;;;;8.00;3.22;;;6.10;66.70;;;;;;5045975;28;20040;-59
2021/03/16 10:52:31;;;;;;;7.43;2.80;;;6.40;67.60;;;;;;5046023;28;20042;-58
2021/03/16 10:54:56;;;;;;;10.98;3.28;;;6.70;66.20;;;;;;5045821;28;20397;-58
2021/03/16 10:57:22;;;;;;;6.88;3.17;;;6.80;65.70;;;;;;5044521;28;20216;-58
2021/03/16 10:59:47;;;;;;;8.32;2.75;;;6.90;65.40;;;;;;5047698;28;20216;-58
2021/03/16 11:02:14;;;;;;;10.68;3.38;;;6.90;64.10;;;;;;5045747;28;20218;-59
2021/03/16 11:04:40;;;;;;;8.00;2.70;;;6.80;63.70;;;;;;5045668;28;20034;-60
2021/03/16 11:07:05;;;;;;;10.05;2.95;;;6.90;63.80;;;;;;5045703;28;20415;-60
2021/03/16 11:09:31;;;;;;;9.13;3.03;;;6.90;63.50;;;;;;5045363;28;20064;-60
2021/03/16 11:11:56;;;;;;;8.43;2.85;;;6.90;63.40;;;;;;5047024;28;20337;-60
2021/03/16 11:14:22;;;;;;;5.43;2.70;;;7.00;63.80;;;;;;5045762;28;20084;-61
2021/03/16 11:16:47;;;;;;;8.10;2.50;;;6.90;62.80;;;;;;5044639;28;20038;-59
2021/03/16 11:19:13;;;;;;;5.45;2.20;;;6.90;62.40;;;;;;5044918;28;20336;-60
2021/03/16 11:21:39;;;;;;;7.03;2.20;;;6.80;61.70;;;;;;5044974;28;20233;-60
2021/03/16 11:24:05;;;;;;;6.55;2.17;;;6.80;60.90;;;;;;5046733;28;20018;-62
2021/03/16 11:26:30;;;;;;;7.30;2.17;;;6.70;60.50;;;;;;5045609;28;20083;-62
2021/03/16 11:28:56;;;;;;;9.20;3.25;;;6.70;61.40;;;;;;5031589;28;20061;-61
2021/03/16 11:31:21;;;;;;;4.45;1.75;;;6.80;61.80;;;;;;5034562;28;20045;-59
2021/03/16 11:33:47;;;;;;;7.93;1.88;;;6.70;62.10;;;;;;5044931;28;20088;-59
2021/03/16 11:36:14;;;;;;;11.32;1.88;;;6.60;61.20;;;;;;5046784;28;20174;-60
2021/03/16 11:38:40;;;;;;;8.60;2.25;;;6.50;60.10;;;;;;5045122;28;20043;-59
2021/03/16 11:41:06;;;;;;;7.63;2.25;;;6.50;60.20;;;;;;5044754;28;20037;-61
2021/03/16 11:43:31;;;;;;;6.60;2.00;;;6.60;60.50;;;;;;5044591;28;20097;-63
2021/03/16 11:45:57;;;;;;;7.05;1.98;;;6.70;61.40;;;;;;5038947;28;20037;-61
2021/03/16 11:48:22;;;;;;;5.32;1.90;;;6.60;61.30;;;;;;5025756;28;20052;-60
2021/03/16 11:50:48;;;;;;;6.38;2.08;;;6.70;61.80;;;;;;5046553;28;20059;-60
2021/03/16 11:53:14;;;;;;;6.60;2.15;;;6.80;60.70;;;;;;5045016;28;20106;-60
2021/03/16 11:55:39;;;;;;;5.15;2.08;;;6.90;60.70;;;;;;5033274;28;20038;-61
2021/03/16 11:58:05;;;;;;;10.18;2.42;;;7.00;60.60;;;;;;5031602;28;20036;-60
2021/03/16 12:00:30;;;;;;;6.97;1.70;;;7.10;61.20;;;;;;5044364;28;20057;-60
2021/03/16 12:02:57;;;;;;;5.03;2.15;;;7.10;60.20;;;;;;5046327;28;20053;-60
2021/03/16 12:05:23;;;;;;;6.55;2.25;;;7.10;59.00;;;;;;5044848;28;20079;-61
2021/03/16 12:07:48;;;;;;;5.15;1.80;;;7.20;59.80;;;;;;5044397;28;20253;-60
2021/03/16 12:10:14;;;;;;;7.38;1.90;;;7.30;58.50;;;;;;5044528;28;20072;-60
2021/03/16 12:12:39;;;;;;;4.47;1.73;;;7.30;57.80;;;;;;5044143;28;20033;-60
2021/03/16 12:15:15;;;;;;;6.78;1.83;;;7.40;58.40;;;;;;5046116;28;20029;-60
2021/03/16 12:17:41;;;;;;;4.25;1.73;;;7.40;58.20;;;;;;5045017;28;20171;-61
2021/03/16 12:20:07;;;;;;;5.93;1.90;;;7.40;57.50;;;;;;5044326;28;20034;-60
2021/03/16 12:22:33;;;;;;;5.32;2.20;;;7.20;56.40;;;;;;5042766;28;20260;-61
2021/03/16 12:24:58;;;;;;;8.93;2.25;;;7.20;57.50;;;;;;5044025;28;20030;-62
2021/03/16 12:27:24;;;;;;;5.75;2.10;;;7.00;58.40;;;;;;5042870;28;20056;-61
2021/03/16 12:29:50;;;;;;;3.92;2.15;;;7.10;59.10;;;;;;5025810;28;20030;-61
2021/03/16 12:32:16;;;;;;;6.00;2.03;;;7.00;58.50;;;;;;5024522;28;20041;-60
2021/03/16 12:34:41;;;;;;;7.38;2.60;;;6.90;58.10;;;;;;5023328;28;20380;-61
2021/03/16 12:37:07;;;;;;;9.27;2.33;;;6.90;58.60;;;;;;5030917;28;20029;-60
2021/03/16 12:39:33;;;;;;;8.55;2.38;;;6.90;58.40;;;;;;5043810;28;20041;-60
2021/03/16 12:41:59;;;;;;;7.50;2.10;;;6.90;58.10;;;;;;5045551;28;20340;-60
2021/03/16 12:44:25;;;;;;;8.52;2.35;;;6.90;58.30;;;;;;5043879;28;20037;-61
2021/03/16 12:46:50;;;;;;;6.88;2.83;;;6.90;58.40;;;;;;5043916;28;20089;-61
2021/03/16 12:49:16;;;;;;;8.00;2.25;;;7.10;57.40;;;;;;5043584;28;20030;-60
2021/03/16 12:51:41;;;;;;;6.32;2.38;;;7.50;58.50;;;;;;5043838;28;20068;-61